sensor_id;sensor_type;location;lat;lon;timestamp;P1;durP1;ratioP1;P2;durP2;ratioP2
72095;SDS011;59968;51.084;16.748;2022-10-31T00:01:34;13.90;;;9.30;;
72095;SDS011;59968;51.084;16.748;2022-10-31T00:04:05;16.40;;;9.50;;
72095;SDS011;59968;51.084;16.748;2022-10-31T00:06:33;15.20;;;8.70;;
72095;SDS011;59968;51.084;16.748;2022-10-31T00:09:03;16.80;;;9.00;;
72095;SDS011;59968;51.084;16.748;2022-10-31T00:11:32;22.20;;;10.90;;
72095;SDS011;59968;51.084;16.748;2022-10-31T00:14:01;22.40;;;10.40;;
72095;SDS011;59968;51.084;16.748;2022-10-31T00:16:30;20.30;;;10.20;;
72095;SDS011;59968;51.084;16.748;2022-10-31T00:19:00;24.10;;;10.80;;
72095;SDS011;59968;51.084;16.748;2022-10-31T00:21:31;21.30;;;10.90;;
72095;SDS011;59968;51.084;16.748;2022-10-31T00:24:00;18.90;;;10.30;;
72095;SDS011;59968;51.084;16.748;2022-10-31T00:26:30;17.90;;;9.80;;
72095;SDS011;59968;51.084;16.748;2022-10-31T00:28:59;18.70;;;11.30;;
72095;SDS011;59968;51.084;16.748;2022-10-31T00:31:27;18.40;;;10.60;;
72095;SDS011;59968;51.084;16.748;2022-10-31T00:33:57;20.10;;;10.40;;
72095;SDS011;59968;51.084;16.748;2022-10-31T00:36:30;20.20;;;10.10;;
72095;SDS011;59968;51.084;16.748;2022-10-31T00:38:58;22.90;;;11.00;;
72095;SDS011;59968;51.084;16.748;2022-10-31T00:41:27;20.30;;;11.50;;
72095;SDS011;59968;51.084;16.748;2022-10-31T00:43:58;20.50;;;10.60;;
72095;SDS011;59968;51.084;16.748;2022-10-31T00:46:27;21.00;;;10.90;;
72095;SDS011;59968;51.084;16.748;2022-10-31T00:48:55;22.10;;;12.20;;
72095;SDS011;59968;51.084;16.748;2022-10-31T00:51:24;26.30;;;12.60;;
72095;SDS011;59968;51.084;16.748;2022-10-31T00:53:52;23.40;;;11.40;;
72095;SDS011;59968;51.084;16.748;2022-10-31T00:56:20;23.20;;;12.10;;
72095;SDS011;59968;51.084;16.748;2022-10-31T00:58:48;23.40;;;12.40;;
72095;SDS011;59968;51.084;16.748;2022-10-31T01:01:16;23.10;;;11.70;;
72095;SDS011;59968;51.084;16.748;2022-10-31T01:03:45;22.30;;;11.60;;
72095;SDS011;59968;51.084;16.748;2022-10-31T01:06:14;23.10;;;11.60;;
72095;SDS011;59968;51.084;16.748;2022-10-31T01:08:42;20.80;;;11.10;;
72095;SDS011;59968;51.084;16.748;2022-10-31T01:11:14;21.20;;;11.50;;
72095;SDS011;59968;51.084;16.748;2022-10-31T01:13:43;21.80;;;11.90;;
72095;SDS011;59968;51.084;16.748;2022-10-31T01:16:16;21.50;;;11.60;;
72095;SDS011;59968;51.084;16.748;2022-10-31T01:18:46;18.10;;;10.00;;
72095;SDS011;59968;51.084;16.748;2022-10-31T01:21:16;19.10;;;9.10;;
72095;SDS011;59968;51.084;16.748;2022-10-31T01:23:49;18.40;;;8.90;;
72095;SDS011;59968;51.084;16.748;2022-10-31T01:26:19;17.10;;;9.10;;
72095;SDS011;59968;51.084;16.748;2022-10-31T01:28:53;17.80;;;10.10;;
72095;SDS011;59968;51.084;16.748;2022-10-31T01:31:28;19.40;;;9.90;;
72095;SDS011;59968;51.084;16.748;2022-10-31T01:34:01;17.40;;;10.00;;
72095;SDS011;59968;51.084;16.748;2022-10-31T01:36:32;19.50;;;9.80;;
72095;SDS011;59968;51.084;16.748;2022-10-31T01:39:06;17.90;;;10.20;;
72095;SDS011;59968;51.084;16.748;2022-10-31T01:41:37;14.70;;;8.80;;
72095;SDS011;59968;51.084;16.748;2022-10-31T01:49:15;18.50;;;9.50;;
72095;SDS011;59968;51.084;16.748;2022-10-31T01:51:46;20.10;;;11.40;;
72095;SDS011;59968;51.084;16.748;2022-10-31T01:54:21;20.80;;;10.00;;
72095;SDS011;59968;51.084;16.748;2022-10-31T01:56:54;23.80;;;11.10;;
72095;SDS011;59968;51.084;16.748;2022-10-31T01:59:26;22.80;;;11.00;;
72095;SDS011;59968;51.084;16.748;2022-10-31T02:01:58;22.20;;;12.20;;
72095;SDS011;59968;51.084;16.748;2022-10-31T02:04:26;21.90;;;11.30;;
72095;SDS011;59968;51.084;16.748;2022-10-31T02:06:57;25.00;;;12.00;;
72095;SDS011;59968;51.084;16.748;2022-10-31T02:09:33;21.10;;;10.70;;
72095;SDS011;59968;51.084;16.748;2022-10-31T02:12:02;25.20;;;11.10;;
72095;SDS011;59968;51.084;16.748;2022-10-31T02:14:32;22.50;;;10.60;;
72095;SDS011;59968;51.084;16.748;2022-10-31T02:17:03;23.30;;;11.10;;
72095;SDS011;59968;51.084;16.748;2022-10-31T02:22:05;22.60;;;11.10;;
72095;SDS011;59968;51.084;16.748;2022-10-31T02:30:03;23.90;;;10.30;;
72095;SDS011;59968;51.084;16.748;2022-10-31T02:35:31;19.60;;;8.80;;
72095;SDS011;59968;51.084;16.748;2022-10-31T02:38:31;20.00;;;9.50;;
72095;SDS011;59968;51.084;16.748;2022-10-31T02:46:55;16.70;;;9.30;;
72095;SDS011;59968;51.084;16.748;2022-10-31T02:49:34;20.50;;;9.50;;
72095;SDS011;59968;51.084;16.748;2022-10-31T02:52:22;18.40;;;8.70;;
72095;SDS011;59968;51.084;16.748;2022-10-31T02:54:52;21.00;;;9.90;;
72095;SDS011;59968;51.084;16.748;2022-10-31T02:57:31;19.80;;;10.00;;
72095;SDS011;59968;51.084;16.748;2022-10-31T03:00:04;21.70;;;10.10;;
72095;SDS011;59968;51.084;16.748;2022-10-31T03:02:43;21.00;;;9.40;;
72095;SDS011;59968;51.084;16.748;2022-10-31T03:13:18;18.80;;;9.20;;
72095;SDS011;59968;51.084;16.748;2022-10-31T03:15:54;18.10;;;8.90;;
72095;SDS011;59968;51.084;16.748;2022-10-31T03:18:33;16.00;;;8.50;;
72095;SDS011;59968;51.084;16.748;2022-10-31T03:23:53;17.10;;;8.60;;
72095;SDS011;59968;51.084;16.748;2022-10-31T03:26:24;18.80;;;9.00;;
72095;SDS011;59968;51.084;16.748;2022-10-31T03:28:54;17.80;;;8.90;;
72095;SDS011;59968;51.084;16.748;2022-10-31T03:31:28;18.60;;;9.20;;
72095;SDS011;59968;51.084;16.748;2022-10-31T03:34:00;19.20;;;7.70;;
72095;SDS011;59968;51.084;16.748;2022-10-31T03:36:30;17.90;;;8.70;;
72095;SDS011;59968;51.084;16.748;2022-10-31T03:39:02;18.50;;;8.80;;
72095;SDS011;59968;51.084;16.748;2022-10-31T03:41:34;17.90;;;9.00;;
72095;SDS011;59968;51.084;16.748;2022-10-31T03:44:10;16.60;;;8.30;;
72095;SDS011;59968;51.084;16.748;2022-10-31T03:46:43;19.10;;;9.00;;
72095;SDS011;59968;51.084;16.748;2022-10-31T03:49:12;17.30;;;8.60;;
72095;SDS011;59968;51.084;16.748;2022-10-31T03:51:47;18.60;;;8.40;;
72095;SDS011;59968;51.084;16.748;2022-10-31T03:54:30;21.50;;;8.80;;
72095;SDS011;59968;51.084;16.748;2022-10-31T04:00:23;18.40;;;9.00;;
72095;SDS011;59968;51.084;16.748;2022-10-31T04:03:03;21.00;;;9.80;;
72095;SDS011;59968;51.084;16.748;2022-10-31T04:05:36;17.80;;;9.20;;
72095;SDS011;59968;51.084;16.748;2022-10-31T04:08:07;19.70;;;9.60;;
72095;SDS011;59968;51.084;16.748;2022-10-31T04:10:39;21.30;;;9.60;;
72095;SDS011;59968;51.084;16.748;2022-10-31T04:13:14;18.70;;;8.90;;
72095;SDS011;59968;51.084;16.748;2022-10-31T04:15:51;15.90;;;8.70;;
72095;SDS011;59968;51.084;16.748;2022-10-31T04:18:23;15.70;;;7.70;;
72095;SDS011;59968;51.084;16.748;2022-10-31T04:21:05;16.00;;;7.90;;
72095;SDS011;59968;51.084;16.748;2022-10-31T04:23:35;12.90;;;7.40;;
72095;SDS011;59968;51.084;16.748;2022-10-31T04:26:16;15.70;;;7.90;;
72095;SDS011;59968;51.084;16.748;2022-10-31T04:28:44;17.30;;;8.00;;
72095;SDS011;59968;51.084;16.748;2022-10-31T04:31:13;16.10;;;8.30;;
72095;SDS011;59968;51.084;16.748;2022-10-31T04:33:42;14.80;;;7.20;;
72095;SDS011;59968;51.084;16.748;2022-10-31T04:36:12;19.50;;;7.70;;
72095;SDS011;59968;51.084;16.748;2022-10-31T04:38:40;17.00;;;8.00;;
72095;SDS011;59968;51.084;16.748;2022-10-31T04:41:15;15.60;;;8.20;;
72095;SDS011;59968;51.084;16.748;2022-10-31T04:43:51;19.10;;;8.10;;
72095;SDS011;59968;51.084;16.748;2022-10-31T04:46:20;14.70;;;7.10;;
72095;SDS011;59968;51.084;16.748;2022-10-31T04:48:48;13.70;;;8.20;;
72095;SDS011;59968;51.084;16.748;2022-10-31T04:51:16;14.60;;;7.10;;
72095;SDS011;59968;51.084;16.748;2022-10-31T04:53:45;15.60;;;7.70;;
72095;SDS011;59968;51.084;16.748;2022-10-31T04:56:36;15.10;;;7.20;;
72095;SDS011;59968;51.084;16.748;2022-10-31T04:59:09;13.80;;;7.20;;
72095;SDS011;59968;51.084;16.748;2022-10-31T05:01:45;14.80;;;7.40;;
72095;SDS011;59968;51.084;16.748;2022-10-31T05:04:14;14.20;;;7.20;;
72095;SDS011;59968;51.084;16.748;2022-10-31T05:06:42;13.20;;;7.20;;
72095;SDS011;59968;51.084;16.748;2022-10-31T05:09:10;15.00;;;7.50;;
72095;SDS011;59968;51.084;16.748;2022-10-31T05:11:38;13.20;;;7.30;;
72095;SDS011;59968;51.084;16.748;2022-10-31T05:14:17;16.90;;;7.70;;
72095;SDS011;59968;51.084;16.748;2022-10-31T05:17:05;13.80;;;7.20;;
72095;SDS011;59968;51.084;16.748;2022-10-31T05:19:59;15.00;;;7.40;;
72095;SDS011;59968;51.084;16.748;2022-10-31T05:22:48;12.00;;;6.90;;
72095;SDS011;59968;51.084;16.748;2022-10-31T05:25:18;15.80;;;7.40;;
72095;SDS011;59968;51.084;16.748;2022-10-31T05:27:50;11.90;;;6.90;;
72095;SDS011;59968;51.084;16.748;2022-10-31T05:30:21;12.00;;;6.50;;
72095;SDS011;59968;51.084;16.748;2022-10-31T05:32:52;14.00;;;6.50;;
72095;SDS011;59968;51.084;16.748;2022-10-31T05:35:47;13.20;;;6.60;;
72095;SDS011;59968;51.084;16.748;2022-10-31T05:38:45;11.70;;;6.90;;
72095;SDS011;59968;51.084;16.748;2022-10-31T05:41:21;11.90;;;6.90;;
72095;SDS011;59968;51.084;16.748;2022-10-31T05:43:51;14.30;;;7.20;;
72095;SDS011;59968;51.084;16.748;2022-10-31T05:46:21;11.80;;;6.40;;
72095;SDS011;59968;51.084;16.748;2022-10-31T05:49:21;13.30;;;7.00;;
72095;SDS011;59968;51.084;16.748;2022-10-31T05:52:09;14.70;;;7.70;;
72095;SDS011;59968;51.084;16.748;2022-10-31T05:54:45;14.50;;;7.10;;
72095;SDS011;59968;51.084;16.748;2022-10-31T05:57:14;16.20;;;7.10;;
72095;SDS011;59968;51.084;16.748;2022-10-31T05:59:43;13.60;;;7.40;;
72095;SDS011;59968;51.084;16.748;2022-10-31T06:02:11;14.40;;;7.00;;
72095;SDS011;59968;51.084;16.748;2022-10-31T06:04:58;24.60;;;7.60;;
72095;SDS011;59968;51.084;16.748;2022-10-31T06:07:31;13.50;;;7.10;;
72095;SDS011;59968;51.084;16.748;2022-10-31T06:10:03;13.70;;;7.40;;
72095;SDS011;59968;51.084;16.748;2022-10-31T06:12:35;14.80;;;7.60;;
72095;SDS011;59968;51.084;16.748;2022-10-31T06:15:32;15.30;;;7.10;;
72095;SDS011;59968;51.084;16.748;2022-10-31T06:18:01;15.40;;;8.40;;
72095;SDS011;59968;51.084;16.748;2022-10-31T06:20:35;15.20;;;7.60;;
72095;SDS011;59968;51.084;16.748;2022-10-31T06:23:05;15.70;;;7.10;;
72095;SDS011;59968;51.084;16.748;2022-10-31T06:25:34;12.10;;;7.40;;
72095;SDS011;59968;51.084;16.748;2022-10-31T06:28:05;12.50;;;6.90;;
72095;SDS011;59968;51.084;16.748;2022-10-31T06:30:49;14.30;;;7.90;;
72095;SDS011;59968;51.084;16.748;2022-10-31T06:33:18;15.70;;;7.60;;
72095;SDS011;59968;51.084;16.748;2022-10-31T06:36:13;17.00;;;8.50;;
72095;SDS011;59968;51.084;16.748;2022-10-31T06:38:42;15.40;;;7.70;;
72095;SDS011;59968;51.084;16.748;2022-10-31T06:41:11;15.20;;;8.30;;
72095;SDS011;59968;51.084;16.748;2022-10-31T06:43:47;16.60;;;8.40;;
72095;SDS011;59968;51.084;16.748;2022-10-31T06:46:48;15.40;;;7.80;;
72095;SDS011;59968;51.084;16.748;2022-10-31T06:49:36;14.40;;;6.70;;
72095;SDS011;59968;51.084;16.748;2022-10-31T06:52:11;13.50;;;7.00;;
72095;SDS011;59968;51.084;16.748;2022-10-31T06:54:39;12.90;;;6.90;;
72095;SDS011;59968;51.084;16.748;2022-10-31T06:57:08;11.90;;;6.90;;
72095;SDS011;59968;51.084;16.748;2022-10-31T06:59:38;16.00;;;7.50;;
72095;SDS011;59968;51.084;16.748;2022-10-31T07:02:22;15.00;;;7.20;;
72095;SDS011;59968;51.084;16.748;2022-10-31T07:04:51;14.10;;;7.30;;
72095;SDS011;59968;51.084;16.748;2022-10-31T07:07:20;12.90;;;7.20;;
72095;SDS011;59968;51.084;16.748;2022-10-31T07:09:50;16.60;;;8.10;;
72095;SDS011;59968;51.084;16.748;2022-10-31T07:12:25;18.30;;;7.50;;
72095;SDS011;59968;51.084;16.748;2022-10-31T07:14:58;13.60;;;7.40;;
72095;SDS011;59968;51.084;16.748;2022-10-31T07:17:28;17.00;;;7.00;;
72095;SDS011;59968;51.084;16.748;2022-10-31T07:19:59;16.60;;;7.70;;
72095;SDS011;59968;51.084;16.748;2022-10-31T07:22:34;16.00;;;7.30;;
72095;SDS011;59968;51.084;16.748;2022-10-31T07:25:07;17.40;;;7.70;;
72095;SDS011;59968;51.084;16.748;2022-10-31T07:27:56;17.50;;;7.60;;
72095;SDS011;59968;51.084;16.748;2022-10-31T07:30:27;14.30;;;7.40;;
72095;SDS011;59968;51.084;16.748;2022-10-31T07:32:57;15.00;;;7.60;;
72095;SDS011;59968;51.084;16.748;2022-10-31T07:35:43;15.50;;;7.70;;
72095;SDS011;59968;51.084;16.748;2022-10-31T07:38:13;14.90;;;7.40;;
72095;SDS011;59968;51.084;16.748;2022-10-31T07:40:48;14.90;;;7.80;;
72095;SDS011;59968;51.084;16.748;2022-10-31T07:43:19;15.40;;;8.20;;
72095;SDS011;59968;51.084;16.748;2022-10-31T07:46:18;16.50;;;6.40;;
72095;SDS011;59968;51.084;16.748;2022-10-31T07:49:06;13.00;;;6.50;;
72095;SDS011;59968;51.084;16.748;2022-10-31T07:51:56;14.40;;;5.50;;
72095;SDS011;59968;51.084;16.748;2022-10-31T07:54:34;15.10;;;6.20;;
72095;SDS011;59968;51.084;16.748;2022-10-31T07:57:02;13.40;;;5.90;;
72095;SDS011;59968;51.084;16.748;2022-10-31T07:59:33;13.40;;;5.50;;
72095;SDS011;59968;51.084;16.748;2022-10-31T08:02:03;9.60;;;5.20;;
72095;SDS011;59968;51.084;16.748;2022-10-31T08:04:32;13.80;;;6.10;;
72095;SDS011;59968;51.084;16.748;2022-10-31T08:07:20;11.90;;;5.10;;
72095;SDS011;59968;51.084;16.748;2022-10-31T08:09:57;14.00;;;6.30;;
72095;SDS011;59968;51.084;16.748;2022-10-31T08:12:29;15.20;;;5.80;;
72095;SDS011;59968;51.084;16.748;2022-10-31T08:15:02;12.00;;;5.10;;
72095;SDS011;59968;51.084;16.748;2022-10-31T08:17:35;11.50;;;4.40;;
72095;SDS011;59968;51.084;16.748;2022-10-31T08:20:05;8.30;;;4.10;;
72095;SDS011;59968;51.084;16.748;2022-10-31T08:22:42;9.10;;;4.10;;
72095;SDS011;59968;51.084;16.748;2022-10-31T08:25:12;9.70;;;4.80;;
72095;SDS011;59968;51.084;16.748;2022-10-31T08:27:42;14.10;;;4.70;;
72095;SDS011;59968;51.084;16.748;2022-10-31T08:30:18;13.20;;;4.00;;
72095;SDS011;59968;51.084;16.748;2022-10-31T08:33:09;11.00;;;4.20;;
72095;SDS011;59968;51.084;16.748;2022-10-31T08:36:16;9.70;;;4.30;;
72095;SDS011;59968;51.084;16.748;2022-10-31T08:39:06;8.70;;;4.50;;
72095;SDS011;59968;51.084;16.748;2022-10-31T08:41:35;7.40;;;4.10;;
72095;SDS011;59968;51.084;16.748;2022-10-31T08:44:13;10.40;;;4.20;;
72095;SDS011;59968;51.084;16.748;2022-10-31T08:46:44;10.10;;;3.80;;
72095;SDS011;59968;51.084;16.748;2022-10-31T08:49:14;10.30;;;4.30;;
72095;SDS011;59968;51.084;16.748;2022-10-31T08:51:46;9.70;;;4.30;;
72095;SDS011;59968;51.084;16.748;2022-10-31T08:54:18;7.10;;;3.30;;
72095;SDS011;59968;51.084;16.748;2022-10-31T08:56:56;6.40;;;3.30;;
72095;SDS011;59968;51.084;16.748;2022-10-31T08:59:34;7.80;;;3.10;;
72095;SDS011;59968;51.084;16.748;2022-10-31T09:02:22;12.80;;;3.80;;
72095;SDS011;59968;51.084;16.748;2022-10-31T09:04:54;7.30;;;3.00;;
72095;SDS011;59968;51.084;16.748;2022-10-31T09:07:22;6.20;;;2.80;;
72095;SDS011;59968;51.084;16.748;2022-10-31T09:09:51;6.50;;;2.90;;
72095;SDS011;59968;51.084;16.748;2022-10-31T09:12:19;7.00;;;3.30;;
72095;SDS011;59968;51.084;16.748;2022-10-31T09:15:07;6.30;;;3.20;;
72095;SDS011;59968;51.084;16.748;2022-10-31T09:17:46;7.20;;;3.40;;
72095;SDS011;59968;51.084;16.748;2022-10-31T09:20:42;7.60;;;2.40;;
72095;SDS011;59968;51.084;16.748;2022-10-31T09:23:13;6.40;;;2.70;;
72095;SDS011;59968;51.084;16.748;2022-10-31T09:25:44;6.30;;;2.90;;
72095;SDS011;59968;51.084;16.748;2022-10-31T09:28:38;7.70;;;3.70;;
72095;SDS011;59968;51.084;16.748;2022-10-31T09:31:14;7.60;;;3.20;;
72095;SDS011;59968;51.084;16.748;2022-10-31T09:34:05;7.10;;;3.10;;
72095;SDS011;59968;51.084;16.748;2022-10-31T09:36:38;6.50;;;2.60;;
72095;SDS011;59968;51.084;16.748;2022-10-31T09:39:33;9.40;;;3.60;;
72095;SDS011;59968;51.084;16.748;2022-10-31T09:48:05;7.70;;;3.30;;
72095;SDS011;59968;51.084;16.748;2022-10-31T09:50:36;6.50;;;3.20;;
72095;SDS011;59968;51.084;16.748;2022-10-31T09:56:20;9.50;;;3.50;;
72095;SDS011;59968;51.084;16.748;2022-10-31T09:58:53;11.90;;;3.70;;
72095;SDS011;59968;51.084;16.748;2022-10-31T10:01:38;9.60;;;3.70;;
72095;SDS011;59968;51.084;16.748;2022-10-31T10:04:16;6.50;;;2.70;;
72095;SDS011;59968;51.084;16.748;2022-10-31T10:10:47;6.60;;;2.80;;
72095;SDS011;59968;51.084;16.748;2022-10-31T10:13:38;9.60;;;3.50;;
72095;SDS011;59968;51.084;16.748;2022-10-31T10:19:14;9.40;;;3.60;;
72095;SDS011;59968;51.084;16.748;2022-10-31T10:33:02;10.90;;;3.60;;
72095;SDS011;59968;51.084;16.748;2022-10-31T10:35:41;7.50;;;3.40;;
72095;SDS011;59968;51.084;16.748;2022-10-31T10:40:48;8.00;;;3.70;;
72095;SDS011;59968;51.084;16.748;2022-10-31T10:43:36;12.40;;;4.70;;
72095;SDS011;59968;51.084;16.748;2022-10-31T10:58:09;11.30;;;4.00;;
72095;SDS011;59968;51.084;16.748;2022-10-31T11:00:39;9.10;;;3.80;;
72095;SDS011;59968;51.084;16.748;2022-10-31T11:03:09;8.50;;;4.30;;
72095;SDS011;59968;51.084;16.748;2022-10-31T11:06:59;8.90;;;3.40;;
72095;SDS011;59968;51.084;16.748;2022-10-31T11:09:30;8.90;;;3.50;;
72095;SDS011;59968;51.084;16.748;2022-10-31T11:12:08;6.70;;;3.50;;
72095;SDS011;59968;51.084;16.748;2022-10-31T11:14:59;9.60;;;4.10;;
72095;SDS011;59968;51.084;16.748;2022-10-31T11:17:49;6.90;;;3.50;;
72095;SDS011;59968;51.084;16.748;2022-10-31T11:22:48;8.80;;;3.10;;
72095;SDS011;59968;51.084;16.748;2022-10-31T11:30:28;9.50;;;4.40;;
72095;SDS011;59968;51.084;16.748;2022-10-31T11:32:57;9.20;;;3.30;;
72095;SDS011;59968;51.084;16.748;2022-10-31T11:35:26;7.60;;;3.70;;
72095;SDS011;59968;51.084;16.748;2022-10-31T11:37:57;8.10;;;4.10;;
72095;SDS011;59968;51.084;16.748;2022-10-31T11:40:30;9.00;;;3.40;;
72095;SDS011;59968;51.084;16.748;2022-10-31T11:42:59;8.30;;;3.20;;
72095;SDS011;59968;51.084;16.748;2022-10-31T11:45:32;6.00;;;3.00;;
72095;SDS011;59968;51.084;16.748;2022-10-31T11:48:01;8.60;;;4.10;;
72095;SDS011;59968;51.084;16.748;2022-10-31T11:50:46;9.00;;;3.80;;
72095;SDS011;59968;51.084;16.748;2022-10-31T11:53:24;9.20;;;3.80;;
72095;SDS011;59968;51.084;16.748;2022-10-31T12:00:47;11.00;;;4.20;;
72095;SDS011;59968;51.084;16.748;2022-10-31T12:06:02;9.40;;;3.90;;
72095;SDS011;59968;51.084;16.748;2022-10-31T12:08:43;8.70;;;4.00;;
72095;SDS011;59968;51.084;16.748;2022-10-31T12:25:39;9.10;;;4.00;;
72095;SDS011;59968;51.084;16.748;2022-10-31T12:31:36;10.00;;;4.10;;
72095;SDS011;59968;51.084;16.748;2022-10-31T12:37:10;9.50;;;4.80;;
72095;SDS011;59968;51.084;16.748;2022-10-31T12:51:05;11.30;;;5.20;;
72095;SDS011;59968;51.084;16.748;2022-10-31T12:53:52;9.40;;;5.30;;
72095;SDS011;59968;51.084;16.748;2022-10-31T13:02:18;13.20;;;5.40;;
72095;SDS011;59968;51.084;16.748;2022-10-31T13:04:56;9.70;;;5.40;;
72095;SDS011;59968;51.084;16.748;2022-10-31T13:07:34;11.50;;;4.80;;
72095;SDS011;59968;51.084;16.748;2022-10-31T13:10:24;12.80;;;5.10;;
72095;SDS011;59968;51.084;16.748;2022-10-31T13:13:00;11.10;;;4.30;;
72095;SDS011;59968;51.084;16.748;2022-10-31T13:15:38;12.90;;;4.90;;
72095;SDS011;59968;51.084;16.748;2022-10-31T13:19:00;9.50;;;4.90;;
72095;SDS011;59968;51.084;16.748;2022-10-31T13:21:27;11.40;;;5.20;;
72095;SDS011;59968;51.084;16.748;2022-10-31T13:24:20;9.10;;;4.60;;
72095;SDS011;59968;51.084;16.748;2022-10-31T13:26:53;12.90;;;4.90;;
72095;SDS011;59968;51.084;16.748;2022-10-31T13:29:32;9.20;;;4.50;;
72095;SDS011;59968;51.084;16.748;2022-10-31T13:32:07;11.50;;;4.70;;
72095;SDS011;59968;51.084;16.748;2022-10-31T13:34:38;12.20;;;5.30;;
72095;SDS011;59968;51.084;16.748;2022-10-31T13:37:19;9.20;;;4.10;;
72095;SDS011;59968;51.084;16.748;2022-10-31T13:43:02;11.50;;;5.10;;
72095;SDS011;59968;51.084;16.748;2022-10-31T13:45:50;10.30;;;5.10;;
72095;SDS011;59968;51.084;16.748;2022-10-31T13:48:39;9.40;;;4.40;;
72095;SDS011;59968;51.084;16.748;2022-10-31T13:51:10;11.40;;;4.70;;
72095;SDS011;59968;51.084;16.748;2022-10-31T13:53:40;9.60;;;5.10;;
72095;SDS011;59968;51.084;16.748;2022-10-31T13:56:19;12.60;;;6.00;;
72095;SDS011;59968;51.084;16.748;2022-10-31T14:01:45;14.20;;;5.90;;
72095;SDS011;59968;51.084;16.748;2022-10-31T14:04:17;11.10;;;5.80;;
72095;SDS011;59968;51.084;16.748;2022-10-31T14:09:29;10.10;;;5.00;;
72095;SDS011;59968;51.084;16.748;2022-10-31T14:12:00;13.20;;;5.90;;
72095;SDS011;59968;51.084;16.748;2022-10-31T14:14:42;12.80;;;5.70;;
72095;SDS011;59968;51.084;16.748;2022-10-31T14:17:20;12.30;;;5.70;;
72095;SDS011;59968;51.084;16.748;2022-10-31T14:22:39;14.20;;;5.40;;
72095;SDS011;59968;51.084;16.748;2022-10-31T14:28:01;12.30;;;5.70;;
72095;SDS011;59968;51.084;16.748;2022-10-31T14:30:32;12.70;;;6.40;;
72095;SDS011;59968;51.084;16.748;2022-10-31T14:33:01;11.40;;;6.00;;
72095;SDS011;59968;51.084;16.748;2022-10-31T14:35:53;11.60;;;5.60;;
72095;SDS011;59968;51.084;16.748;2022-10-31T14:47:39;12.50;;;5.30;;
72095;SDS011;59968;51.084;16.748;2022-10-31T14:53:12;12.10;;;6.60;;
72095;SDS011;59968;51.084;16.748;2022-10-31T14:56:02;16.50;;;7.10;;
72095;SDS011;59968;51.084;16.748;2022-10-31T14:58:46;13.20;;;6.80;;
72095;SDS011;59968;51.084;16.748;2022-10-31T15:01:30;16.30;;;7.20;;
72095;SDS011;59968;51.084;16.748;2022-10-31T15:04:14;15.90;;;7.50;;
72095;SDS011;59968;51.084;16.748;2022-10-31T15:12:54;15.80;;;7.20;;
72095;SDS011;59968;51.084;16.748;2022-10-31T15:15:24;13.70;;;6.80;;
72095;SDS011;59968;51.084;16.748;2022-10-31T15:17:55;16.20;;;7.60;;
72095;SDS011;59968;51.084;16.748;2022-10-31T15:20:31;15.10;;;7.30;;
72095;SDS011;59968;51.084;16.748;2022-10-31T15:23:09;15.70;;;8.70;;
72095;SDS011;59968;51.084;16.748;2022-10-31T15:25:43;23.50;;;11.60;;
72095;SDS011;59968;51.084;16.748;2022-10-31T15:28:13;24.90;;;13.60;;
72095;SDS011;59968;51.084;16.748;2022-10-31T15:30:54;20.00;;;12.10;;
72095;SDS011;59968;51.084;16.748;2022-10-31T15:33:31;28.30;;;12.50;;
72095;SDS011;59968;51.084;16.748;2022-10-31T15:36:19;17.60;;;10.10;;
72095;SDS011;59968;51.084;16.748;2022-10-31T15:38:55;23.50;;;11.70;;
72095;SDS011;59968;51.084;16.748;2022-10-31T15:41:30;25.70;;;13.70;;
72095;SDS011;59968;51.084;16.748;2022-10-31T15:44:23;27.00;;;14.70;;
72095;SDS011;59968;51.084;16.748;2022-10-31T15:46:57;29.30;;;13.90;;
72095;SDS011;59968;51.084;16.748;2022-10-31T15:49:48;27.70;;;14.00;;
72095;SDS011;59968;51.084;16.748;2022-10-31T15:52:34;27.20;;;13.80;;
72095;SDS011;59968;51.084;16.748;2022-10-31T15:57:51;27.10;;;13.60;;
72095;SDS011;59968;51.084;16.748;2022-10-31T16:00:27;23.90;;;12.80;;
72095;SDS011;59968;51.084;16.748;2022-10-31T16:03:02;26.70;;;12.20;;
72095;SDS011;59968;51.084;16.748;2022-10-31T16:10:52;22.70;;;12.10;;
72095;SDS011;59968;51.084;16.748;2022-10-31T16:13:28;21.00;;;11.20;;
72095;SDS011;59968;51.084;16.748;2022-10-31T16:16:03;22.00;;;12.30;;
72095;SDS011;59968;51.084;16.748;2022-10-31T16:19:00;23.20;;;11.60;;
72095;SDS011;59968;51.084;16.748;2022-10-31T16:21:37;23.30;;;11.60;;
72095;SDS011;59968;51.084;16.748;2022-10-31T16:24:43;19.80;;;11.20;;
72095;SDS011;59968;51.084;16.748;2022-10-31T16:27:15;26.80;;;13.50;;
72095;SDS011;59968;51.084;16.748;2022-10-31T16:29:47;22.70;;;11.80;;
72095;SDS011;59968;51.084;16.748;2022-10-31T16:34:57;22.90;;;11.50;;
72095;SDS011;59968;51.084;16.748;2022-10-31T16:37:28;20.90;;;11.90;;
72095;SDS011;59968;51.084;16.748;2022-10-31T16:39:57;23.70;;;12.90;;
72095;SDS011;59968;51.084;16.748;2022-10-31T16:42:25;24.30;;;14.90;;
72095;SDS011;59968;51.084;16.748;2022-10-31T16:44:55;29.80;;;17.60;;
72095;SDS011;59968;51.084;16.748;2022-10-31T16:47:25;25.80;;;14.40;;
72095;SDS011;59968;51.084;16.748;2022-10-31T16:49:55;21.10;;;12.30;;
72095;SDS011;59968;51.084;16.748;2022-10-31T16:52:28;25.50;;;13.10;;
72095;SDS011;59968;51.084;16.748;2022-10-31T16:55:11;20.60;;;12.10;;
72095;SDS011;59968;51.084;16.748;2022-10-31T16:57:45;24.80;;;12.70;;
72095;SDS011;59968;51.084;16.748;2022-10-31T17:00:18;20.50;;;11.10;;
72095;SDS011;59968;51.084;16.748;2022-10-31T17:02:48;21.80;;;12.20;;
72095;SDS011;59968;51.084;16.748;2022-10-31T17:05:19;25.00;;;13.30;;
72095;SDS011;59968;51.084;16.748;2022-10-31T17:07:49;32.80;;;16.30;;
72095;SDS011;59968;51.084;16.748;2022-10-31T17:10:18;53.70;;;26.00;;
72095;SDS011;59968;51.084;16.748;2022-10-31T17:12:47;42.40;;;22.20;;
72095;SDS011;59968;51.084;16.748;2022-10-31T17:15:19;39.30;;;20.10;;
72095;SDS011;59968;51.084;16.748;2022-10-31T17:17:52;30.10;;;16.30;;
72095;SDS011;59968;51.084;16.748;2022-10-31T17:20:26;27.80;;;15.60;;
72095;SDS011;59968;51.084;16.748;2022-10-31T17:22:57;18.30;;;10.40;;
72095;SDS011;59968;51.084;16.748;2022-10-31T17:25:28;18.40;;;10.90;;
72095;SDS011;59968;51.084;16.748;2022-10-31T17:28:01;24.30;;;14.90;;
72095;SDS011;59968;51.084;16.748;2022-10-31T17:30:30;19.10;;;12.10;;
72095;SDS011;59968;51.084;16.748;2022-10-31T17:33:00;20.00;;;11.20;;
72095;SDS011;59968;51.084;16.748;2022-10-31T17:35:30;17.20;;;9.90;;
72095;SDS011;59968;51.084;16.748;2022-10-31T17:37:58;16.60;;;8.80;;
72095;SDS011;59968;51.084;16.748;2022-10-31T17:40:27;15.50;;;8.70;;
72095;SDS011;59968;51.084;16.748;2022-10-31T17:42:56;22.00;;;10.20;;
72095;SDS011;59968;51.084;16.748;2022-10-31T17:45:25;32.40;;;15.20;;
72095;SDS011;59968;51.084;16.748;2022-10-31T17:47:54;46.20;;;22.00;;
72095;SDS011;59968;51.084;16.748;2022-10-31T17:50:23;59.30;;;26.10;;
72095;SDS011;59968;51.084;16.748;2022-10-31T17:52:53;60.90;;;28.30;;
72095;SDS011;59968;51.084;16.748;2022-10-31T17:55:21;57.90;;;28.30;;
72095;SDS011;59968;51.084;16.748;2022-10-31T17:57:49;41.30;;;19.90;;
72095;SDS011;59968;51.084;16.748;2022-10-31T18:00:19;32.70;;;16.60;;
72095;SDS011;59968;51.084;16.748;2022-10-31T18:02:50;28.90;;;15.30;;